| time (UTC) | temp C | wind direction | speed KPH | gust KPH | rain 1hr cm | rain 24hr cm | rain mn cm | humidity % | barometer mb |
| 20260510174551 | 13 | 9 | 12.9 | 22.5 | 0.00 | 0.00 | 0.00 | 60 | 1015.0 |
| 20260510173055 | 13 | 34 | 6.4 | 24.1 | 0.00 | 0.00 | 0.00 | 63 | 1015.1 |
| 20260510171541 | 13 | 351 | 17.7 | 32.2 | 0.00 | 0.00 | 0.00 | 60 | 1015.1 |
| 20260510170038 | 14 | 14 | 17.7 | 25.7 | 0.00 | 0.00 | 0.00 | 60 | 1015.2 |
| 20260510164556 | 13 | 15 | 11.3 | 19.3 | 0.00 | 0.00 | 0.00 | 62 | 1015.4 |
| 20260510163043 | 13 | 29 | 8.0 | 19.3 | 0.00 | 0.00 | 0.00 | 64 | 1015.6 |
| 20260510161544 | 13 | 290 | 8.0 | 17.7 | 0.00 | 0.00 | 0.00 | 65 | 1015.6 |
| 20260510160042 | 13 | 42 | 8.0 | 19.3 | 0.00 | 0.00 | 0.00 | 66 | 1015.9 |
| 20260510154539 | 13 | 28 | 8.0 | 19.3 | 0.00 | 0.00 | 0.00 | 65 | 1016.0 |
| 20260510153046 | 13 | 345 | 9.7 | 20.9 | 0.00 | 0.00 | 0.00 | 68 | 1016.2 |
| 20260510151539 | 13 | 5 | 11.3 | 25.7 | 0.00 | 0.00 | 0.00 | 66 | 1016.3 |
| 20260510150043 | 13 | 11 | 14.5 | 22.5 | 0.00 | 0.00 | 0.00 | 67 | 1016.3 |
| 20260510144549 | 13 | 360 | 14.5 | 24.1 | 0.00 | 0.00 | 0.00 | 68 | 1016.5 |
| 20260510143043 | 13 | 40 | 9.7 | 24.1 | 0.00 | 0.00 | 0.00 | 69 | 1016.6 |
| 20260510141543 | 13 | 16 | 12.9 | 25.7 | 0.00 | 0.00 | 0.00 | 69 | 1016.7 |
| 20260510140043 | 13 | 19 | 11.3 | 19.3 | 0.00 | 0.00 | 0.00 | 68 | 1017.0 |
| 20260510134547 | 13 | 355 | 11.3 | 20.9 | 0.00 | 0.00 | 0.00 | 68 | 1017.1 |
| 20260510133044 | 13 | 352 | 11.3 | 20.9 | 0.00 | 0.00 | 0.00 | 71 | 1017.1 |
| 20260510131544 | 12 | 355 | 14.5 | 25.7 | 0.00 | 0.00 | 0.00 | 72 | 1017.1 |
| 20260510130043 | 12 | 36 | 9.7 | 22.5 | 0.00 | 0.00 | 0.00 | 73 | 1017.2 |
| 20260510124550 | 13 | 17 | 11.3 | 19.3 | 0.00 | 0.00 | 0.00 | 72 | 1017.4 |
| 20260510123038 | 12 | 32 | 11.3 | 20.9 | 0.00 | 0.00 | 0.00 | 75 | 1017.4 |
| 20260510121552 | 12 | 5 | 11.3 | 19.3 | 0.00 | 0.00 | 0.00 | 74 | 1017.4 |
| 20260510120043 | 12 | 89 | 3.2 | 8.0 | 0.00 | 0.00 | 0.00 | 76 | 1017.7 |
| 20260510114543 | 12 | 62 | 8.0 | 19.3 | 0.00 | 0.00 | 0.00 | 76 | 1017.8 |
| 20260510113043 | 12 | 14 | 6.4 | 19.3 | 0.00 | 0.00 | 0.00 | 76 | 1017.9 |
| 20260510111539 | 12 | 355 | 6.4 | 19.3 | 0.00 | 0.00 | 0.00 | 76 | 1018.1 |
| 20260510110045 | 12 | 60 | 9.7 | 22.5 | 0.00 | 0.00 | 0.00 | 76 | 1018.0 |
| 20260510104538 | 12 | 5 | 8.0 | 20.9 | 0.00 | 0.00 | 0.00 | 77 | 1018.1 |
| 20260510103046 | 12 | 360 | 12.9 | 22.5 | 0.00 | 0.00 | 0.00 | 77 | 1018.2 |
| 20260510101544 | 12 | 24 | 12.9 | 19.3 | 0.00 | 0.00 | 0.00 | 76 | 1018.1 |
| 20260510100051 | 12 | 5 | 9.7 | 19.3 | 0.00 | 0.00 | 0.00 | 79 | 1018.4 |
| 20260510094545 | 11 | 9 | 9.7 | 19.3 | 0.00 | 0.00 | 0.00 | 77 | 1018.3 |
| 20260510093045 | 11 | 22 | 12.9 | 24.1 | 0.00 | 0.00 | 0.00 | 79 | 1018.4 |
| 20260510091544 | 11 | 347 | 11.3 | 24.1 | 0.00 | 0.00 | 0.00 | 80 | 1018.6 |
| 20260510090057 | 11 | 20 | 11.3 | 24.1 | 0.00 | 0.00 | 0.00 | 79 | 1018.5 |
| 20260510084551 | 11 | 28 | 12.9 | 25.7 | 0.00 | 0.00 | 0.00 | 80 | 1018.6 |
| 20260510083041 | 11 | 19 | 16.1 | 25.7 | 0.00 | 0.00 | 0.00 | 81 | 1018.6 |
| 20260510081538 | 11 | 20 | 17.7 | 29.0 | 0.00 | 0.00 | 0.00 | 81 | 1018.6 |
| 20260510080046 | 10 | 5 | 16.1 | 27.4 | 0.00 | 0.00 | 0.00 | 83 | 1018.5 |
| 20260510074558 | 10 | 12 | 16.1 | 29.0 | 0.00 | 0.00 | 0.00 | 84 | 1018.4 |
| 20260510073047 | 10 | 315 | 16.1 | 24.1 | 0.00 | 0.00 | 0.00 | 84 | 1018.3 |
| 20260510071554 | 9 | 13 | 12.9 | 22.5 | 0.00 | 0.00 | 0.00 | 84 | 1018.3 |
| 20260510070042 | 9 | 350 | 11.3 | 22.5 | 0.00 | 0.00 | 0.00 | 84 | 1018.1 |
| 20260510064549 | 9 | 21 | 11.3 | 22.5 | 0.00 | 0.00 | 0.00 | 84 | 1018.1 |
| 20260510063047 | 9 | 21 | 14.5 | 22.5 | 0.00 | 0.00 | 0.00 | 84 | 1017.9 |
| 20260510061544 | 9 | 30 | 14.5 | 22.5 | 0.00 | 0.00 | 0.00 | 84 | 1018.0 |
| 20260510060053 | 9 | 13 | 16.1 | 24.1 | 0.00 | 0.00 | 0.00 | 85 | 1017.9 |
| 20260510054543 | 9 | 25 | 11.3 | 19.3 | 0.00 | 0.00 | 0.00 | 85 | 1017.9 |
| 20260510053042 | 9 | 344 | 12.9 | 20.9 | 0.00 | 0.00 | 0.00 | 84 | 1017.7 |
| 20260510051546 | 9 | 5 | 14.5 | 22.5 | 0.00 | 0.00 | 0.00 | 84 | 1017.7 |
| 20260510050046 | 9 | 26 | 17.7 | 27.4 | 0.00 | 0.00 | 0.00 | 84 | 1017.8 |
| 20260510044545 | 9 | 16 | 20.9 | 27.4 | 0.00 | 0.00 | 0.00 | 84 | 1017.7 |
| 20260510043049 | 9 | 355 | 14.5 | 20.9 | 0.00 | 0.00 | 0.00 | 84 | 1017.8 |
| 20260510041604 | 9 | 40 | 11.3 | 22.5 | 0.00 | 0.00 | 0.00 | 83 | 1017.8 |
| 20260510040043 | 10 | 5 | 12.9 | 24.1 | 0.00 | 0.00 | 0.00 | 81 | 1017.8 |
| 20260510034538 | 10 | 360 | 12.9 | 27.4 | 0.00 | 0.00 | 0.00 | 79 | 1017.8 |
| 20260510033046 | 10 | 24 | 16.1 | 29.0 | 0.00 | 0.00 | 0.00 | 78 | 1017.8 |
| 20260510031545 | 10 | 347 | 12.9 | 27.4 | 0.00 | 0.00 | 0.00 | 78 | 1018.0 |
| 20260510030049 | 10 | 17 | 16.1 | 25.7 | 0.00 | 0.00 | 0.00 | 77 | 1018.0 |
| 20260510024552 | 11 | 52 | 16.1 | 29.0 | 0.00 | 0.00 | 0.00 | 76 | 1018.1 |
| 20260510023038 | 11 | 13 | 17.7 | 30.6 | 0.00 | 0.00 | 0.00 | 77 | 1017.9 |
| 20260510021537 | 11 | 13 | 17.7 | 32.2 | 0.00 | 0.00 | 0.00 | 78 | 1017.8 |
| 20260510020051 | 11 | 5 | 16.1 | 25.7 | 0.00 | 0.00 | 0.00 | 79 | 1017.9 |
| 20260510014545 | 11 | 5 | 16.1 | 29.0 | 0.00 | 0.00 | 0.00 | 79 | 1017.9 |
| 20260510013048 | 11 | 37 | 14.5 | 25.7 | 0.00 | 0.00 | 0.00 | 80 | 1017.9 |
| 20260510011541 | 11 | 11 | 14.5 | 20.9 | 0.00 | 0.00 | 0.00 | 81 | 1017.9 |
| 20260510010056 | 11 | 340 | 11.3 | 22.5 | 0.00 | 0.00 | 0.00 | 81 | 1017.8 |
| 20260510004539 | 11 | 9 | 11.3 | 20.9 | 0.00 | 0.00 | 0.00 | 81 | 1017.9 |
| 20260510003044 | 12 | 349 | 9.7 | 19.3 | 0.00 | 0.00 | 0.00 | 81 | 1017.9 |
| 20260510001543 | 12 | 22 | 8.0 | 24.1 | 0.00 | 0.00 | 0.00 | 81 | 1018.0 |
| 20260510000044 | 12 | 338 | 11.3 | 29.0 | 0.00 | 0.00 | 0.00 | 81 | 1017.9 |
| 20260509234558 | 12 | 5 | 17.7 | 29.0 | 0.00 | 0.00 | 0.00 | 82 | 1017.6 |
| 20260509233039 | 12 | 15 | 19.3 | 30.6 | 0.00 | 0.00 | 0.00 | 82 | 1017.5 |
| 20260509231545 | 12 | 13 | 20.9 | 32.2 | 0.00 | 0.00 | 0.00 | 82 | 1017.5 |
| 20260509230045 | 12 | 5 | 20.9 | 32.2 | 0.00 | 0.00 | 0.00 | 82 | 1017.4 |
| 20260509224543 | 12 | 355 | 25.7 | 38.6 | 0.00 | 0.00 | 0.00 | 83 | 1017.2 |
| 20260509223045 | 12 | 5 | 20.9 | 37.0 | 0.00 | 0.00 | 0.00 | 83 | 1017.3 |
| 20260509221602 | 12 | 352 | 20.9 | 32.2 | 0.00 | 0.00 | 0.00 | 83 | 1017.3 |
| 20260509220045 | 12 | 346 | 22.5 | 32.2 | 0.00 | 0.00 | 0.00 | 83 | 1017.3 |
| 20260509214547 | 12 | 23 | 20.9 | 30.6 | 0.00 | 0.00 | 0.00 | 83 | 1017.5 |
| 20260509213046 | 12 | 5 | 19.3 | 30.6 | 0.00 | 0.00 | 0.00 | 83 | 1017.4 |
| 20260509211623 | 12 | 45 | 20.9 | 30.6 | 0.00 | 0.00 | 0.00 | 83 | 1017.4 |
| 20260509210053 | 12 | 24 | 19.3 | 29.0 | 0.00 | 0.00 | 0.00 | 83 | 1017.4 |
| 20260509204543 | 12 | 5 | 19.3 | 29.0 | 0.00 | 0.00 | 0.00 | 82 | 1017.4 |
| 20260509203048 | 12 | 355 | 17.7 | 25.7 | 0.00 | 0.00 | 0.00 | 82 | 1017.4 |
| 20260509201537 | 12 | 5 | 19.3 | 30.6 | 0.00 | 0.00 | 0.00 | 82 | 1017.3 |
| 20260509200043 | 12 | 346 | 19.3 | 30.6 | 0.00 | 0.00 | 0.00 | 83 | 1017.2 |
| 20260509194543 | 12 | 15 | 19.3 | 32.2 | 0.00 | 0.00 | 0.00 | 82 | 1017.2 |
| 20260509193051 | 12 | 355 | 19.3 | 29.0 | 0.00 | 0.00 | 0.00 | 82 | 1017.2 |
| 20260509191606 | 13 | 349 | 17.7 | 27.4 | 0.00 | 0.00 | 0.00 | 82 | 1017.3 |
| 20260509190054 | 13 | 15 | 16.1 | 24.1 | 0.00 | 0.00 | 0.00 | 83 | 1017.1 |
| 20260509184543 | 13 | 348 | 17.7 | 25.7 | 0.00 | 0.00 | 0.00 | 83 | 1017.1 |
| 20260509183043 | 13 | 355 | 17.7 | 27.4 | 0.00 | 0.00 | 0.00 | 82 | 1017.0 |
| 20260509181542 | 13 | 350 | 20.9 | 27.4 | 0.00 | 0.00 | 0.00 | 81 | 1017.0 |
| 20260509180042 | 13 | 343 | 19.3 | 27.4 | 0.00 | 0.00 | 0.00 | 81 | 1016.8 |